Time;durP1;ratioP1;P1;durP2;ratioP2;P2;SDS_P1;SDS_P2;PMS_P1;PMS_P2;Temp;Humidity;BMP_temperature;BMP_pressure;BME280_temperature;BME280_humidity;BME280_pressure;Samples;Min_cycle;Max_cycle;Signal;HPM_P1;HPM_P2
2021/11/11 00:02:17;;;;;;;13.68;5.55;;;;;;;;;;5134237;28;20062;-74
2021/11/11 00:04:43;;;;;;;15.05;5.97;;;;;;;;;;5116030;28;20027;-81
2021/11/11 00:07:10;;;;;;;17.05;5.53;;;;;;;;;;5134618;28;20019;-79
2021/11/11 00:09:36;;;;;;;20.92;5.53;;;;;;;;;;5134615;28;20408;-81
2021/11/11 00:12:03;;;;;;;13.77;5.70;;;;;;;;;;5116834;28;20023;-81
2021/11/11 00:14:29;;;;;;;17.55;6.18;;;;;;;;;;5135092;28;20031;-83
2021/11/11 00:16:55;;;;;;;13.23;5.15;;;;;;;;;;5134684;28;20044;-79
2021/11/11 00:19:21;;;;;;;14.35;5.43;;;;;;;;;;5122750;28;20063;-78
2021/11/11 00:21:48;;;;;;;11.95;4.85;;;;;;;;;;5113651;28;20055;-66
2021/11/11 00:24:15;;;;;;;20.45;5.40;;;;;;;;;;5114233;28;20020;-73
2021/11/11 00:26:41;;;;;;;15.85;4.78;;;;;;;;;;5113597;28;20470;-71
2021/11/11 00:29:07;;;;;;;20.25;6.03;;;;;;;;;;5104405;28;20083;-71
2021/11/11 00:31:33;;;;;;;14.50;5.47;;;;;;;;;;5114999;28;20031;-70
2021/11/11 00:33:59;;;;;;;14.65;5.72;;;;;;;;;;5133032;28;20016;-71
2021/11/11 00:36:25;;;;;;;19.35;6.03;;;;;;;;;;5133573;28;20054;-71
2021/11/11 00:38:51;;;;;;;13.32;5.82;;;;;;;;;;5133529;28;20043;-70
2021/11/11 00:41:17;;;;;;;13.95;5.85;;;;;;;;;;5133298;28;20461;-69
2021/11/11 00:43:43;;;;;;;12.18;5.75;;;;;;;;;;5133865;28;20019;-72
2021/11/11 00:46:09;;;;;;;21.00;6.15;;;;;;;;;;5133859;28;20015;-73
2021/11/11 00:48:35;;;;;;;17.92;6.00;;;;;;;;;;5133849;28;20027;-77
2021/11/11 00:51:01;;;;;;;15.88;5.72;;;;;;;;;;5133948;27;20020;-77
2021/11/11 00:53:27;;;;;;;16.10;5.75;;;;;;;;;;5137864;27;20027;-77
2021/11/11 00:55:53;;;;;;;22.50;6.05;;;;;;;;;;5118469;27;20588;-73
2021/11/11 00:58:19;;;;;;;13.85;5.63;;;;;;;;;;5137377;27;20030;-73
2021/11/11 01:00:45;;;;;;;15.98;5.68;;;;;;;;;;5146772;27;20031;-76
2021/11/11 01:03:12;;;;;;;20.35;5.90;;;;;;;;;;5158133;27;20011;-76
2021/11/11 01:05:38;;;;;;;13.23;5.65;;;;;;;;;;5157627;27;20026;-72
2021/11/11 01:08:04;;;;;;;19.92;5.57;;;;;;;;;;5158202;27;20037;-72
2021/11/11 01:10:30;;;;;;;10.13;5.32;;;;;;;;;;5139320;27;20121;-75
2021/11/11 01:12:57;;;;;;;10.63;5.65;;;;;;;;;;5139337;27;20027;-73
2021/11/11 01:15:28;;;;;;;20.50;6.00;;;;;;;;;;5157423;27;20485;-77
2021/11/11 01:17:54;;;;;;;17.83;5.47;;;;;;;;;;5136834;27;20026;-76
2021/11/11 01:20:20;;;;;;;14.82;5.60;;;;;;;;;;5136451;27;20092;-78
2021/11/11 01:22:47;;;;;;;11.13;5.55;;;;;;;;;;5135476;27;20102;-74
2021/11/11 01:25:17;;;;;;;11.80;5.35;;;;;;;;;;5116388;28;20020;-77
2021/11/11 01:27:43;;;;;;;13.73;6.03;;;;;;;;;;5116228;28;20365;-74
2021/11/11 01:30:10;;;;;;;11.75;5.38;;;;;;;;;;5115174;28;20487;-76
2021/11/11 01:32:36;;;;;;;11.18;5.45;;;;;;;;;;5097913;28;20054;-71
2021/11/11 01:35:03;;;;;;;10.30;5.15;;;;;;;;;;5120386;27;20047;-74
2021/11/11 01:37:29;;;;;;;13.77;5.40;;;;;;;;;;5136361;27;20071;-77
2021/11/11 01:39:56;;;;;;;9.43;4.82;;;;;;;;;;5136872;27;20039;-69
2021/11/11 01:42:22;;;;;;;9.70;4.95;;;;;;;;;;5118517;27;20138;-73
2021/11/11 01:44:50;;;;;;;11.80;5.60;;;;;;;;;;5136791;27;20435;-70
2021/11/11 01:47:16;;;;;;;11.60;4.95;;;;;;;;;;5134282;27;20047;-72
2021/11/11 01:49:42;;;;;;;10.70;4.82;;;;;;;;;;5136500;27;20390;-73
2021/11/11 01:52:09;;;;;;;10.02;4.47;;;;;;;;;;5136229;27;20054;-78
2021/11/11 01:54:35;;;;;;;11.75;4.97;;;;;;;;;;5136537;27;20160;-67
2021/11/11 01:57:01;;;;;;;9.20;4.57;;;;;;;;;;5136537;27;20031;-74
2021/11/11 01:59:27;;;;;;;9.45;4.57;;;;;;;;;;5136835;27;20386;-74
2021/11/11 02:01:55;;;;;;;8.57;4.30;;;;;;;;;;5136451;27;20023;-67
2021/11/11 02:04:21;;;;;;;8.75;4.35;;;;;;;;;;5135636;27;20032;-72
2021/11/11 02:06:47;;;;;;;10.38;4.47;;;;;;;;;;5136633;27;20055;-69
2021/11/11 02:09:14;;;;;;;7.43;4.40;;;;;;;;;;5115680;28;20502;-68
2021/11/11 02:11:40;;;;;;;8.23;4.63;;;;;;;;;;5097257;28;20051;-77
2021/11/11 02:14:06;;;;;;;11.45;4.97;;;;;;;;;;5116012;28;20051;-69
2021/11/11 02:16:35;;;;;;;8.88;5.00;;;;;;;;;;5132758;27;20039;-72
2021/11/11 02:19:01;;;;;;;7.88;4.63;;;;;;;;;;5135928;27;20023;-70
2021/11/11 02:21:27;;;;;;;7.93;5.10;;;;;;;;;;5136670;27;20130;-74
2021/11/11 02:23:54;;;;;;;8.60;4.78;;;;;;;;;;5117827;27;20042;-74
2021/11/11 02:26:20;;;;;;;6.95;4.40;;;;;;;;;;5136281;27;20030;-68
2021/11/11 02:28:46;;;;;;;10.30;5.13;;;;;;;;;;5114411;27;20034;-78
2021/11/11 02:31:12;;;;;;;8.65;4.82;;;;;;;;;;5136358;27;20027;-76
2021/11/11 02:33:38;;;;;;;9.40;4.63;;;;;;;;;;5135967;27;20156;-68
2021/11/11 02:36:05;;;;;;;7.07;4.05;;;;;;;;;;5134823;27;20114;-70
2021/11/11 02:38:31;;;;;;;8.07;4.35;;;;;;;;;;5126537;27;20036;-70
2021/11/11 02:40:57;;;;;;;8.65;4.60;;;;;;;;;;5115570;28;20020;-69
2021/11/11 02:43:28;;;;;;;9.90;4.65;;;;;;;;;;5096965;28;20033;-73
2021/11/11 02:45:54;;;;;;;8.13;4.18;;;;;;;;;;5097099;28;20084;-76
2021/11/11 02:48:22;;;;;;;7.35;3.83;;;;;;;;;;5116185;27;20028;-72
2021/11/11 02:50:48;;;;;;;7.78;4.53;;;;;;;;;;5114998;28;20036;-70
2021/11/11 02:53:15;;;;;;;8.50;4.55;;;;;;;;;;5114416;27;20032;-69
2021/11/11 02:55:41;;;;;;;6.45;4.10;;;;;;;;;;5114826;28;20024;-69
2021/11/11 02:58:07;;;;;;;10.88;4.50;;;;;;;;;;5115736;27;20114;-69
2021/11/11 03:00:39;;;;;;;8.15;4.50;;;;;;;;;;5135186;27;20076;-66
2021/11/11 03:03:05;;;;;;;9.02;4.90;;;;;;;;;;5135688;27;20359;-71
2021/11/11 03:05:33;;;;;;;15.57;5.50;;;;;;;;;;5134800;27;20316;-73
2021/11/11 03:07:59;;;;;;;10.93;4.30;;;;;;;;;;5135050;27;20046;-76
2021/11/11 03:10:26;;;;;;;7.90;4.65;;;;;;;;;;5115530;28;20019;-73
2021/11/11 03:12:53;;;;;;;10.20;4.85;;;;;;;;;;5115067;28;20466;-76
2021/11/11 03:15:20;;;;;;;10.77;4.55;;;;;;;;;;5121169;27;20064;-78
2021/11/11 03:17:46;;;;;;;12.77;4.50;;;;;;;;;;5135850;27;20031;-69
2021/11/11 03:20:14;;;;;;;11.38;4.30;;;;;;;;;;5135266;27;20036;-73
2021/11/11 03:22:43;;;;;;;10.15;4.35;;;;;;;;;;5135851;27;20386;-74
2021/11/11 03:25:10;;;;;;;13.35;4.78;;;;;;;;;;5135364;27;20151;-69
2021/11/11 03:27:36;;;;;;;9.07;4.88;;;;;;;;;;5134914;27;20470;-76
2021/11/11 03:30:04;;;;;;;12.43;4.90;;;;;;;;;;5120305;27;20107;-76
2021/11/11 03:32:30;;;;;;;7.35;4.15;;;;;;;;;;5114996;28;20488;-69
2021/11/11 03:34:56;;;;;;;7.00;4.07;;;;;;;;;;5115289;28;20490;-77
2021/11/11 03:37:22;;;;;;;8.45;4.30;;;;;;;;;;5114433;28;20055;-75
2021/11/11 03:39:48;;;;;;;8.52;4.90;;;;;;;;;;5128170;28;20428;-76
2021/11/11 03:42:14;;;;;;;7.20;4.57;;;;;;;;;;5135205;28;20047;-70
2021/11/11 03:44:41;;;;;;;7.97;5.10;;;;;;;;;;5114552;28;20020;-71
2021/11/11 03:47:07;;;;;;;9.75;4.32;;;;;;;;;;5114508;28;20024;-78
2021/11/11 03:49:34;;;;;;;8.95;4.53;;;;;;;;;;5123406;28;20041;-79
2021/11/11 03:52:01;;;;;;;12.98;5.40;;;;;;;;;;5135002;28;20024;-74
2021/11/11 03:54:27;;;;;;;10.65;4.70;;;;;;;;;;5116511;28;20023;-72
2021/11/11 03:56:56;;;;;;;7.75;4.53;;;;;;;;;;5135200;28;20185;-69
2021/11/11 03:59:22;;;;;;;9.98;4.57;;;;;;;;;;5112466;28;20020;-72
2021/11/11 04:01:48;;;;;;;7.20;4.57;;;;;;;;;;5135584;27;20470;-69
2021/11/11 04:04:14;;;;;;;10.90;4.82;;;;;;;;;;5134641;28;20016;-77
2021/11/11 04:06:40;;;;;;;7.00;3.95;;;;;;;;;;5134333;28;20106;-70
2021/11/11 04:09:07;;;;;;;7.05;4.32;;;;;;;;;;5116207;28;20019;-71
2021/11/11 04:11:33;;;;;;;9.68;4.90;;;;;;;;;;5118123;28;20419;-78
2021/11/11 04:14:03;;;;;;;9.10;4.82;;;;;;;;;;5114560;28;20114;-78
2021/11/11 04:16:29;;;;;;;10.63;4.82;;;;;;;;;;5114293;28;20034;-71
2021/11/11 04:18:55;;;;;;;8.00;4.50;;;;;;;;;;5113879;28;20719;-69
2021/11/11 04:21:21;;;;;;;7.75;4.15;;;;;;;;;;5113850;28;20045;-73
2021/11/11 04:23:49;;;;;;;8.27;4.55;;;;;;;;;;5113792;28;20027;-80
2021/11/11 04:26:23;;;;;;;7.45;4.47;;;;;;;;;;5115874;28;20054;-76
2021/11/11 04:29:08;;;;;;;9.25;4.15;;;;;;;;;;5099398;28;20069;-71
2021/11/11 04:31:39;;;;;;;12.02;4.28;;;;;;;;;;5131090;27;20037;-71
2021/11/11 04:34:06;;;;;;;9.63;4.87;;;;;;;;;;5138248;27;20030;-68
2021/11/11 05:05:35;;;;;;;7.75;4.07;;;;;;;;;;5116955;28;20038;-75
2021/11/11 05:08:01;;;;;;;6.50;4.28;;;;;;;;;;5116782;28;20023;-71
2021/11/11 05:10:27;;;;;;;10.52;4.53;;;;;;;;;;5116865;28;20028;-73
2021/11/11 05:12:54;;;;;;;11.45;4.43;;;;;;;;;;5116538;28;20496;-76
2021/11/11 05:15:21;;;;;;;7.90;4.30;;;;;;;;;;5123620;27;20008;-67
2021/11/11 05:17:47;;;;;;;10.55;4.53;;;;;;;;;;5101722;28;20036;-72
2021/11/11 05:20:14;;;;;;;8.10;4.13;;;;;;;;;;5116291;28;20043;-73
2021/11/11 05:22:41;;;;;;;11.70;4.38;;;;;;;;;;5134336;27;20043;-69
2021/11/11 05:25:07;;;;;;;8.73;4.78;;;;;;;;;;5136997;27;20023;-68
2021/11/11 05:27:34;;;;;;;9.63;3.83;;;;;;;;;;5137387;27;20030;-73
2021/11/11 05:30:03;;;;;;;16.20;5.03;;;;;;;;;;5137562;27;20023;-69
2021/11/11 05:32:29;;;;;;;17.02;5.22;;;;;;;;;;5136971;27;20019;-74
2021/11/11 05:34:55;;;;;;;18.70;4.93;;;;;;;;;;5118835;27;20036;-73
2021/11/11 05:37:21;;;;;;;13.63;4.82;;;;;;;;;;5097477;28;20031;-68
2021/11/11 05:39:47;;;;;;;19.38;5.45;;;;;;;;;;5134579;27;20019;-72
2021/11/11 05:42:13;;;;;;;13.60;4.95;;;;;;;;;;5136887;27;20132;-78
2021/11/11 05:44:39;;;;;;;12.98;4.78;;;;;;;;;;5118789;27;20035;-71
2021/11/11 05:47:05;;;;;;;13.77;4.88;;;;;;;;;;5098255;28;20404;-77
2021/11/11 05:49:31;;;;;;;19.08;4.60;;;;;;;;;;5116254;28;20484;-73
2021/11/11 05:51:57;;;;;;;19.48;4.85;;;;;;;;;;5097856;28;20457;-71
2021/11/11 05:54:23;;;;;;;14.27;5.22;;;;;;;;;;5097521;28;20035;-68
2021/11/11 05:56:49;;;;;;;15.25;4.78;;;;;;;;;;5120204;27;20080;-72
2021/11/11 05:59:15;;;;;;;19.45;5.15;;;;;;;;;;5136426;27;20379;-74
2021/11/11 06:01:41;;;;;;;22.85;4.90;;;;;;;;;;5155384;27;20025;-80
2021/11/11 06:04:07;;;;;;;18.25;4.93;;;;;;;;;;5159733;27;20029;-79
2021/11/11 06:06:34;;;;;;;25.90;5.28;;;;;;;;;;5157962;27;20015;-68
2021/11/11 06:08:59;;;;;;;22.17;4.55;;;;;;;;;;5116147;28;20068;-69
2021/11/11 06:11:26;;;;;;;27.15;4.90;;;;;;;;;;5109985;28;20044;-69
2021/11/11 06:13:52;;;;;;;26.85;5.53;;;;;;;;;;5130220;27;20355;-66
2021/11/11 06:16:18;;;;;;;15.73;4.45;;;;;;;;;;5135040;27;20027;-68
2021/11/11 06:18:44;;;;;;;15.02;4.22;;;;;;;;;;5135531;27;20022;-70
2021/11/11 06:21:10;;;;;;;15.20;4.85;;;;;;;;;;5135080;27;20509;-70
2021/11/11 06:23:36;;;;;;;13.85;3.67;;;;;;;;;;5134459;27;20019;-74
2021/11/11 06:26:03;;;;;;;19.58;4.53;;;;;;;;;;5136236;27;20063;-70
2021/11/11 06:28:30;;;;;;;15.77;4.30;;;;;;;;;;5136974;27;20027;-77
2021/11/11 06:30:56;;;;;;;17.42;4.38;;;;;;;;;;5117967;27;20027;-68
2021/11/11 06:33:23;;;;;;;27.23;5.18;;;;;;;;;;5137259;27;20019;-72
2021/11/11 06:35:49;;;;;;;26.85;5.93;;;;;;;;;;5115494;27;20025;-71
2021/11/11 06:38:15;;;;;;;23.90;6.13;;;;;;;;;;5135025;27;20597;-71
2021/11/11 06:40:41;;;;;;;25.17;6.90;;;;;;;;;;5112990;27;20079;-71
2021/11/11 06:43:08;;;;;;;18.55;5.50;;;;;;;;;;5114990;28;20062;-71
2021/11/11 06:45:44;;;;;;;16.00;5.40;;;;;;;;;;5130317;27;20471;-72
2021/11/11 06:48:10;;;;;;;28.23;6.38;;;;;;;;;;5111574;27;20474;-71
2021/11/11 06:50:37;;;;;;;43.50;5.85;;;;;;;;;;5133346;27;20041;-70
2021/11/11 06:53:04;;;;;;;20.92;5.93;;;;;;;;;;5116111;27;20019;-72
2021/11/11 06:55:30;;;;;;;20.60;5.28;;;;;;;;;;5135155;27;20023;-69
2021/11/11 06:57:56;;;;;;;11.65;5.30;;;;;;;;;;5135251;27;20118;-71
2021/11/11 07:00:22;;;;;;;18.80;5.47;;;;;;;;;;5135093;27;20023;-73
2021/11/11 07:02:48;;;;;;;23.73;5.20;;;;;;;;;;5134985;27;20129;-70
2021/11/11 07:05:15;;;;;;;14.73;5.00;;;;;;;;;;5134173;27;20043;-69
2021/11/11 07:07:41;;;;;;;10.85;5.10;;;;;;;;;;5116969;27;20062;-78
2021/11/11 07:10:08;;;;;;;21.00;5.60;;;;;;;;;;5136918;27;20431;-76
2021/11/11 07:12:34;;;;;;;12.88;4.80;;;;;;;;;;5138440;27;20102;-68
2021/11/11 07:15:04;;;;;;;13.77;4.60;;;;;;;;;;5136459;27;20015;-72
2021/11/11 07:17:30;;;;;;;21.30;4.78;;;;;;;;;;5116382;27;20035;-74
2021/11/11 07:19:56;;;;;;;11.02;5.05;;;;;;;;;;5117496;27;20050;-69
2021/11/11 07:22:22;;;;;;;7.95;4.65;;;;;;;;;;5113798;27;20358;-72
2021/11/11 07:24:48;;;;;;;10.00;4.72;;;;;;;;;;5136368;27;20023;-73
2021/11/11 07:27:15;;;;;;;10.73;4.53;;;;;;;;;;5134502;27;20035;-70
2021/11/11 07:29:41;;;;;;;6.95;4.07;;;;;;;;;;5126135;27;20481;-67
2021/11/11 07:32:07;;;;;;;15.13;4.25;;;;;;;;;;5134688;27;20023;-69
2021/11/11 07:34:36;;;;;;;8.15;4.28;;;;;;;;;;5134318;27;20466;-72
2021/11/11 07:37:02;;;;;;;17.92;4.53;;;;;;;;;;5133581;27;20023;-72
2021/11/11 07:39:28;;;;;;;15.98;4.60;;;;;;;;;;5132436;27;20019;-65
2021/11/11 07:41:54;;;;;;;11.15;4.88;;;;;;;;;;5142570;27;20035;-71
2021/11/11 07:44:20;;;;;;;10.55;4.38;;;;;;;;;;5140936;27;20030;-71
2021/11/11 07:46:46;;;;;;;8.10;4.22;;;;;;;;;;5118511;28;20019;-67
2021/11/11 07:49:12;;;;;;;13.05;4.13;;;;;;;;;;5134267;28;20102;-68
2021/11/11 07:51:38;;;;;;;12.02;4.53;;;;;;;;;;5121296;28;20115;-74
2021/11/11 07:54:04;;;;;;;11.18;4.25;;;;;;;;;;5114753;28;20020;-67
2021/11/11 07:56:30;;;;;;;12.48;4.15;;;;;;;;;;5133840;28;20035;-72
2021/11/11 07:58:57;;;;;;;8.13;4.10;;;;;;;;;;5134353;28;20474;-72
2021/11/11 08:01:23;;;;;;;11.40;4.25;;;;;;;;;;5137194;27;20012;-71
2021/11/11 08:03:49;;;;;;;12.45;4.30;;;;;;;;;;5115397;27;20031;-73
2021/11/11 08:06:15;;;;;;;14.15;4.13;;;;;;;;;;5137788;27;20027;-70
2021/11/11 08:08:41;;;;;;;9.77;4.80;;;;;;;;;;5136330;27;20347;-69
2021/11/11 08:11:07;;;;;;;8.57;4.38;;;;;;;;;;5119552;27;20103;-69
2021/11/11 08:13:33;;;;;;;11.90;4.40;;;;;;;;;;5138049;27;20023;-70
2021/11/11 08:16:00;;;;;;;8.75;4.30;;;;;;;;;;5138195;27;20024;-70
2021/11/11 08:18:26;;;;;;;7.47;4.20;;;;;;;;;;5138289;27;20027;-68
2021/11/11 08:20:54;;;;;;;9.73;4.50;;;;;;;;;;5137811;27;20035;-69
2021/11/11 08:23:20;;;;;;;9.25;4.10;;;;;;;;;;5143846;27;20034;-70
2021/11/11 08:25:47;;;;;;;7.70;4.18;;;;;;;;;;5138233;27;20035;-69
2021/11/11 08:28:17;;;;;;;11.82;4.10;;;;;;;;;;5138471;27;20035;-70
2021/11/11 08:30:43;;;;;;;6.82;3.80;;;;;;;;;;5138261;27;20062;-67
2021/11/11 08:33:10;;;;;;;6.50;4.00;;;;;;;;;;5119880;27;20054;-71
2021/11/11 08:35:36;;;;;;;8.02;3.90;;;;;;;;;;5137834;27;20511;-73
2021/11/11 08:38:02;;;;;;;6.53;3.95;;;;;;;;;;5138559;27;20027;-71
2021/11/11 08:40:28;;;;;;;7.72;4.25;;;;;;;;;;5137355;27;20023;-73
2021/11/11 08:42:56;;;;;;;7.85;4.07;;;;;;;;;;5130043;27;20039;-69
2021/11/11 08:45:23;;;;;;;8.65;3.90;;;;;;;;;;5117048;28;20031;-67
2021/11/11 08:47:49;;;;;;;9.00;4.18;;;;;;;;;;5117057;28;20055;-70
2021/11/11 08:50:15;;;;;;;6.55;3.88;;;;;;;;;;5116792;28;20023;-66
2021/11/11 08:52:44;;;;;;;7.47;3.90;;;;;;;;;;5112343;27;20023;-68
2021/11/11 08:55:12;;;;;;;6.72;3.97;;;;;;;;;;5127798;27;20027;-70
2021/11/11 08:57:38;;;;;;;5.97;4.20;;;;;;;;;;5102689;27;20414;-75
2021/11/11 09:00:09;;;;;;;10.00;4.55;;;;;;;;;;5141617;27;20473;-74
2021/11/11 09:02:35;;;;;;;9.18;4.05;;;;;;;;;;5158141;27;20473;-72
2021/11/11 09:05:02;;;;;;;9.25;3.97;;;;;;;;;;5122975;27;20526;-71
2021/11/11 09:07:29;;;;;;;9.00;4.07;;;;;;;;;;5126049;27;20032;-74
2021/11/11 09:09:55;;;;;;;8.57;4.50;;;;;;;;;;5123420;27;20036;-69
2021/11/11 09:12:21;;;;;;;15.07;4.68;;;;;;;;;;5117040;27;20023;-68
2021/11/11 09:14:47;;;;;;;11.45;4.50;;;;;;;;;;5136788;27;20019;-70
2021/11/11 09:17:13;;;;;;;11.45;4.88;;;;;;;;;;5136221;27;20491;-71
2021/11/11 09:19:39;;;;;;;7.35;4.40;;;;;;;;;;5136077;27;20118;-66
2021/11/11 09:22:05;;;;;;;16.05;4.25;;;;;;;;;;5129318;27;20638;-69
2021/11/11 09:24:31;;;;;;;12.45;4.60;;;;;;;;;;5118056;27;20100;-68
2021/11/11 09:26:57;;;;;;;9.77;4.35;;;;;;;;;;5117844;27;20035;-68
2021/11/11 09:29:23;;;;;;;10.70;4.55;;;;;;;;;;5135954;27;20534;-68
2021/11/11 09:31:49;;;;;;;9.77;4.40;;;;;;;;;;5117826;27;20598;-68
2021/11/11 09:34:15;;;;;;;8.55;4.30;;;;;;;;;;5110819;28;20019;-70
2021/11/11 09:36:41;;;;;;;10.60;4.43;;;;;;;;;;5115199;28;20031;-68
2021/11/11 09:39:07;;;;;;;9.95;4.10;;;;;;;;;;5115767;27;20068;-65
2021/11/11 09:41:34;;;;;;;7.95;4.20;;;;;;;;;;5117497;27;20397;-68
2021/11/11 09:44:00;;;;;;;6.28;3.92;;;;;;;;;;5115727;28;20027;-66
2021/11/11 09:46:26;;;;;;;6.55;4.25;;;;;;;;;;5126095;27;20030;-65
2021/11/11 09:48:52;;;;;;;8.82;4.53;;;;;;;;;;5135529;27;20023;-65
2021/11/11 09:51:20;;;;;;;8.65;4.25;;;;;;;;;;5136965;27;20034;-69
2021/11/11 09:59:07;;;;;;;10.25;4.97;;;;;;;;;;5135293;27;20034;-66
2021/11/11 10:01:34;;;;;;;17.48;4.68;;;;;;;;;;5139888;27;20101;-68
2021/11/11 10:04:01;;;;;;;10.35;4.95;;;;;;;;;;5129210;27;20034;-70
2021/11/11 10:06:28;;;;;;;12.63;4.85;;;;;;;;;;5114690;27;20015;-68
2021/11/11 10:09:01;;;;;;;18.25;6.35;;;;;;;;;;5096790;28;20020;-70
2021/11/11 10:11:40;;;;;;;31.38;5.78;;;;;;;;;;5104286;27;20474;-69
2021/11/11 10:14:06;;;;;;;16.88;5.18;;;;;;;;;;5130540;27;20011;-68
2021/11/11 10:16:42;;;;;;;22.73;5.57;;;;;;;;;;5137835;27;20034;-68
2021/11/11 10:19:08;;;;;;;29.25;6.72;;;;;;;;;;5135095;27;20110;-66
2021/11/11 10:24:12;;;;;;;32.15;6.20;;;;;;;;;;5148185;27;20034;-72
2021/11/11 10:26:42;;;;;;;33.28;6.20;;;;;;;;;;5134632;27;20138;-73
2021/11/11 10:29:31;;;;;;;16.98;7.22;;;;;;;;;;5116307;27;20029;-72
2021/11/11 10:32:02;;;;;;;44.63;6.82;;;;;;;;;;5134238;27;20394;-77
2021/11/11 10:34:29;;;;;;;33.13;9.65;;;;;;;;;;5134356;27;20027;-72
2021/11/11 10:36:55;;;;;;;21.45;6.82;;;;;;;;;;5130150;27;20432;-77
2021/11/11 10:39:24;;;;;;;27.40;9.45;;;;;;;;;;5134394;27;20451;-72
2021/11/11 10:41:50;;;;;;;19.25;7.25;;;;;;;;;;5134893;27;20051;-69
2021/11/11 10:44:28;;;;;;;20.27;8.18;;;;;;;;;;5133697;27;20020;-67
2021/11/11 10:46:54;;;;;;;24.02;8.50;;;;;;;;;;5129692;27;20118;-68
2021/11/11 10:49:26;;;;;;;28.27;8.98;;;;;;;;;;5112030;27;20104;-67
2021/11/11 10:51:52;;;;;;;27.52;8.43;;;;;;;;;;5131581;27;20420;-66
2021/11/11 10:54:18;;;;;;;17.88;7.13;;;;;;;;;;5132923;27;20027;-69
2021/11/11 10:56:45;;;;;;;21.48;8.18;;;;;;;;;;5114833;27;20389;-69
2021/11/11 10:59:12;;;;;;;19.27;7.60;;;;;;;;;;5115347;27;20450;-69
2021/11/11 11:01:38;;;;;;;16.48;7.18;;;;;;;;;;5133411;27;20032;-67
2021/11/11 11:04:04;;;;;;;11.38;6.38;;;;;;;;;;5132737;27;20354;-68
2021/11/11 11:06:31;;;;;;;16.73;7.35;;;;;;;;;;5130060;27;20378;-68
2021/11/11 11:08:59;;;;;;;14.98;7.90;;;;;;;;;;5133214;27;20075;-67
2021/11/11 11:11:38;;;;;;;22.55;7.78;;;;;;;;;;5133183;27;20023;-67
2021/11/11 11:14:15;;;;;;;17.00;8.07;;;;;;;;;;5115073;27;20068;-67
2021/11/11 11:16:41;;;;;;;14.27;7.53;;;;;;;;;;5133046;27;20485;-66
2021/11/11 11:19:12;;;;;;;18.48;7.80;;;;;;;;;;5133643;27;20493;-70
2021/11/11 11:21:45;;;;;;;15.75;8.57;;;;;;;;;;5131319;27;20035;-68
2021/11/11 11:24:13;;;;;;;25.48;8.68;;;;;;;;;;5115305;27;20377;-66
2021/11/11 11:26:42;;;;;;;16.25;8.52;;;;;;;;;;5133713;27;20034;-68
2021/11/11 11:29:20;;;;;;;17.50;8.20;;;;;;;;;;5133770;27;20019;-68
2021/11/11 11:31:53;;;;;;;20.63;8.63;;;;;;;;;;5133060;27;20076;-69
2021/11/11 11:34:24;;;;;;;18.15;7.93;;;;;;;;;;5134153;27;20102;-69
2021/11/11 11:36:56;;;;;;;18.75;8.48;;;;;;;;;;5107924;28;20096;-67
2021/11/11 11:39:30;;;;;;;18.77;7.85;;;;;;;;;;5124850;28;20050;-66
2021/11/11 11:41:58;;;;;;;22.00;8.50;;;;;;;;;;5127981;27;20023;-67
2021/11/11 11:44:27;;;;;;;18.02;7.90;;;;;;;;;;5132615;28;20023;-67
2021/11/11 11:46:54;;;;;;;18.48;7.50;;;;;;;;;;5127597;28;20020;-68
2021/11/11 11:49:21;;;;;;;13.57;7.68;;;;;;;;;;5133497;28;20335;-70
2021/11/11 11:51:48;;;;;;;19.05;7.93;;;;;;;;;;5114950;28;20039;-70
2021/11/11 11:54:28;;;;;;;25.45;8.25;;;;;;;;;;5135636;27;20155;-70
2021/11/11 11:57:01;;;;;;;18.10;8.35;;;;;;;;;;5108207;28;20042;-69
2021/11/11 11:59:32;;;;;;;17.60;7.85;;;;;;;;;;5115269;28;20114;-68
2021/11/11 12:04:47;;;;;;;27.05;8.35;;;;;;;;;;5129860;28;20027;-66
2021/11/11 12:08:02;;;;;;;30.98;8.27;;;;;;;;;;5130306;28;20035;-67
2021/11/11 12:10:33;;;;;;;18.83;8.52;;;;;;;;;;5114218;28;20039;-64
2021/11/11 12:40:00;;;;;;;26.50;10.68;;;;;;;;;;5130363;28;20027;-66
2021/11/11 12:42:33;;;;;;;21.60;11.02;;;;;;;;;;5126836;28;20031;-66
2021/11/11 12:45:09;;;;;;;29.02;10.75;;;;;;;;;;5131557;28;20019;-66
2021/11/11 12:47:41;;;;;;;24.35;11.13;;;;;;;;;;5114651;27;20023;-66
2021/11/11 12:50:09;;;;;;;;;;;;;;;;;;5133363;27;20031;-66
2021/11/11 12:52:35;;;;;;;18.33;10.27;;;;;;;;;;5134898;27;19908;-67
2021/11/11 12:55:15;;;;;;;15.60;10.02;;;;;;;;;;5135155;27;20031;-67
2021/11/11 12:57:59;;;;;;;19.83;10.90;;;;;;;;;;5135359;27;20122;-66
2021/11/11 13:00:33;;;;;;;15.35;10.10;;;;;;;;;;5116687;27;20064;-67
2021/11/11 13:02:59;;;;;;;16.40;9.07;;;;;;;;;;5135406;27;20091;-66
2021/11/11 13:05:52;;;;;;;16.27;10.85;;;;;;;;;;5135336;27;20362;-66
2021/11/11 13:08:25;;;;;;;14.30;9.13;;;;;;;;;;5128073;27;20035;-67
2021/11/11 13:10:56;;;;;;;17.33;9.57;;;;;;;;;;5133724;27;20110;-66
2021/11/11 13:13:25;;;;;;;18.73;9.85;;;;;;;;;;5134751;27;20028;-67
2021/11/11 13:15:54;;;;;;;22.23;10.15;;;;;;;;;;5134765;27;20080;-67
2021/11/11 13:18:38;;;;;;;16.20;9.35;;;;;;;;;;5134657;27;20473;-67
2021/11/11 13:21:13;;;;;;;17.52;9.25;;;;;;;;;;5134321;27;20157;-67
2021/11/11 13:23:47;;;;;;;16.52;9.95;;;;;;;;;;5134466;27;20023;-68
2021/11/11 13:27:25;;;;;;;18.55;9.00;;;;;;;;;;5116372;27;20019;-66
2021/11/11 15:47:10;;;;;;;46.30;11.70;;;;;;;;;;5120579;28;20567;-67
2021/11/11 16:21:28;;;;;;;23.13;12.60;;;;;;;;;;5133207;27;20050;-68
2021/11/11 16:26:23;;;;;;;29.95;12.52;;;;;;;;;;5137119;27;20049;-67
2021/11/11 16:28:52;;;;;;;32.45;11.77;;;;;;;;;;5136829;27;20458;-69
2021/11/11 16:31:19;;;;;;;23.90;12.55;;;;;;;;;;5130386;27;20117;-68
2021/11/11 16:33:45;;;;;;;21.75;12.55;;;;;;;;;;5139867;27;20398;-70
2021/11/11 16:36:11;;;;;;;27.40;11.98;;;;;;;;;;5137301;27;20424;-69
2021/11/11 16:38:38;;;;;;;21.95;11.52;;;;;;;;;;5128461;27;20056;-67
2021/11/11 16:41:05;;;;;;;27.08;12.68;;;;;;;;;;5137548;27;20015;-66
2021/11/11 16:43:32;;;;;;;23.52;12.00;;;;;;;;;;5138219;27;20042;-71
2021/11/11 16:45:58;;;;;;;22.60;12.15;;;;;;;;;;5136825;27;20367;-67
2021/11/11 16:48:24;;;;;;;23.92;12.00;;;;;;;;;;5137194;27;20443;-67
2021/11/11 16:50:50;;;;;;;28.77;12.60;;;;;;;;;;5137416;27;20101;-70
2021/11/11 16:53:18;;;;;;;24.95;12.68;;;;;;;;;;5138981;27;20030;-68
2021/11/11 16:55:44;;;;;;;29.42;11.75;;;;;;;;;;5118296;27;20034;-70
2021/11/11 16:58:10;;;;;;;31.35;13.18;;;;;;;;;;5138725;27;20398;-66
2021/11/11 17:00:38;;;;;;;26.30;13.27;;;;;;;;;;5137341;27;20019;-68
2021/11/11 17:03:04;;;;;;;41.30;14.95;;;;;;;;;;5137869;27;20035;-74
2021/11/11 17:05:30;;;;;;;35.55;16.75;;;;;;;;;;5139513;27;20024;-68
2021/11/11 17:07:56;;;;;;;43.50;18.63;;;;;;;;;;5138320;27;20548;-67
2021/11/11 17:10:23;;;;;;;46.08;20.00;;;;;;;;;;5138355;27;20027;-70
2021/11/11 17:12:49;;;;;;;54.90;21.20;;;;;;;;;;5133286;27;20408;-73
2021/11/11 17:15:19;;;;;;;59.88;20.75;;;;;;;;;;5118533;27;20430;-68
2021/11/11 17:17:47;;;;;;;46.90;19.98;;;;;;;;;;5137297;27;20086;-69
2021/11/11 17:20:18;;;;;;;60.58;21.65;;;;;;;;;;5119804;27;20047;-70
2021/11/11 17:22:49;;;;;;;64.47;22.23;;;;;;;;;;5140731;27;20035;-66
2021/11/11 17:25:36;;;;;;;58.75;23.42;;;;;;;;;;5139943;27;20043;-67
2021/11/11 17:28:25;;;;;;;59.72;22.13;;;;;;;;;;5117771;27;20520;-68
2021/11/11 17:30:58;;;;;;;62.33;22.55;;;;;;;;;;5128787;27;20046;-67
2021/11/11 17:33:25;;;;;;;56.72;22.75;;;;;;;;;;5117577;27;20498;-68
2021/11/11 17:35:52;;;;;;;65.97;24.08;;;;;;;;;;5137001;27;20725;-67
2021/11/11 17:38:20;;;;;;;66.32;23.77;;;;;;;;;;5136294;27;20035;-71
2021/11/11 17:40:51;;;;;;;68.00;23.00;;;;;;;;;;5118347;27;20011;-68
2021/11/11 17:43:17;;;;;;;80.23;26.30;;;;;;;;;;5136805;27;20606;-66
2021/11/11 17:45:51;;;;;;;64.00;25.15;;;;;;;;;;5140596;27;20424;-72
2021/11/11 17:48:17;;;;;;;73.78;24.27;;;;;;;;;;5136410;27;20027;-67
2021/11/11 17:50:54;;;;;;;66.00;24.75;;;;;;;;;;5118187;27;20038;-70
2021/11/11 17:53:21;;;;;;;65.68;23.58;;;;;;;;;;5138576;27;20031;-68
2021/11/11 17:55:50;;;;;;;56.67;22.33;;;;;;;;;;5138336;27;20054;-72
2021/11/11 17:58:19;;;;;;;62.25;23.75;;;;;;;;;;5118780;27;20053;-71
2021/11/11 18:00:47;;;;;;;60.47;22.95;;;;;;;;;;5136699;27;20019;-70
2021/11/11 18:03:17;;;;;;;62.47;22.73;;;;;;;;;;5136139;27;20437;-72
2021/11/11 18:05:44;;;;;;;57.55;22.02;;;;;;;;;;5136391;27;20016;-71
2021/11/11 18:10:40;;;;;;;55.05;22.48;;;;;;;;;;5138004;27;20122;-72
2021/11/11 18:13:12;;;;;;;49.40;22.27;;;;;;;;;;5135308;27;20386;-66
2021/11/11 18:15:41;;;;;;;61.67;22.25;;;;;;;;;;5126737;27;20049;-68
2021/11/11 18:18:08;;;;;;;52.97;21.50;;;;;;;;;;5136259;27;20034;-72
2021/11/11 18:20:34;;;;;;;51.00;21.73;;;;;;;;;;5136802;27;20039;-71
2021/11/11 18:23:00;;;;;;;57.63;21.65;;;;;;;;;;5136672;27;20027;-70
2021/11/11 18:25:27;;;;;;;52.13;21.52;;;;;;;;;;5135473;27;20473;-66
2021/11/11 18:27:54;;;;;;;71.97;22.63;;;;;;;;;;5135108;27;20035;-68
2021/11/11 18:32:58;;;;;;;85.63;20.90;;;;;;;;;;5136251;27;20027;-66
2021/11/11 18:35:26;;;;;;;91.35;23.10;;;;;;;;;;5136060;27;20463;-65
2021/11/11 18:37:53;;;;;;;85.25;20.55;;;;;;;;;;5137848;27;20039;-74
2021/11/11 18:40:20;;;;;;;124.50;20.02;;;;;;;;;;5136921;27;20121;-66